Time;durP1;ratioP1;P1;durP2;ratioP2;P2;SDS_P1;SDS_P2;PMS_P1;PMS_P2;Temp;Humidity;BMP_temperature;BMP_pressure;BME280_temperature;BME280_humidity;BME280_pressure;Samples;Min_cycle;Max_cycle;Signal;HPM_P1;HPM_P2
2022/01/08 00:00:23;;;;;;;7.43;6.70;;;2.00;99.90;;;;;;5100454;28;20203;-64
2022/01/08 00:02:51;;;;;;;8.80;6.47;;;1.90;99.90;;;;;;5099981;28;20199;-67
2022/01/08 00:05:19;;;;;;;8.60;6.03;;;1.90;99.90;;;;;;5100054;28;20203;-67
2022/01/08 00:07:47;;;;;;;8.75;5.60;;;1.90;99.90;;;;;;5099682;28;20192;-65
2022/01/08 00:10:16;;;;;;;10.15;6.10;;;1.90;99.90;;;;;;5099821;28;20199;-67
2022/01/08 00:12:45;;;;;;;7.03;6.07;;;1.90;99.90;;;;;;5099961;28;20636;-67
2022/01/08 00:15:13;;;;;;;8.98;6.63;;;1.90;99.90;;;;;;5100079;28;20565;-66
2022/01/08 00:17:41;;;;;;;9.73;5.30;;;1.90;99.90;;;;;;5100235;28;20242;-64
2022/01/08 00:20:10;;;;;;;9.82;6.78;;;1.80;99.90;;;;;;5102095;28;20260;-67
2022/01/08 00:22:38;;;;;;;8.65;5.57;;;1.80;99.90;;;;;;5102955;28;20206;-65
2022/01/08 00:25:07;;;;;;;7.35;5.70;;;1.80;99.90;;;;;;5099839;28;20207;-66
2022/01/08 00:27:35;;;;;;;9.38;6.90;;;1.80;99.90;;;;;;5099716;28;20703;-65
2022/01/08 00:30:04;;;;;;;12.73;7.13;;;1.80;99.90;;;;;;5099851;28;20591;-66
2022/01/08 00:32:32;;;;;;;10.73;6.70;;;1.80;99.90;;;;;;5099077;28;20210;-64
2022/01/08 00:35:00;;;;;;;8.52;7.10;;;1.80;99.90;;;;;;5099270;28;20273;-66
2022/01/08 00:37:28;;;;;;;11.65;8.38;;;1.90;99.90;;;;;;5098972;28;20284;-66
2022/01/08 00:39:56;;;;;;;11.88;8.10;;;1.90;99.90;;;;;;5099005;28;20349;-64
2022/01/08 00:42:24;;;;;;;9.85;6.95;;;1.90;99.90;;;;;;5099164;28;20303;-65
2022/01/08 00:44:52;;;;;;;12.05;7.88;;;1.90;99.90;;;;;;5098802;28;20522;-67
2022/01/08 00:47:21;;;;;;;14.27;7.90;;;1.90;99.90;;;;;;5098733;28;20294;-67
2022/01/08 00:49:49;;;;;;;13.45;8.57;;;1.80;99.90;;;;;;5098103;28;20204;-65
2022/01/08 00:52:17;;;;;;;12.93;7.85;;;1.80;99.90;;;;;;5099405;28;20651;-66
2022/01/08 00:54:45;;;;;;;10.98;8.63;;;1.80;99.90;;;;;;5098728;28;20578;-67
2022/01/08 00:57:12;;;;;;;10.98;7.18;;;1.80;99.90;;;;;;5098595;28;20702;-68
2022/01/08 00:59:40;;;;;;;9.07;7.30;;;1.80;99.90;;;;;;5098758;28;20207;-66
2022/01/08 01:02:08;;;;;;;13.23;9.10;;;1.80;99.90;;;;;;5098972;28;20290;-66
2022/01/08 01:04:37;;;;;;;16.25;9.98;;;1.80;99.90;;;;;;5098377;28;20435;-65
2022/01/08 01:07:06;;;;;;;15.23;9.10;;;1.90;99.90;;;;;;5098714;28;20443;-63
2022/01/08 01:09:33;;;;;;;11.52;8.68;;;2.00;99.90;;;;;;5099071;28;20199;-66
2022/01/08 01:12:01;;;;;;;13.48;10.05;;;2.10;99.90;;;;;;5098917;28;20199;-65
2022/01/08 01:14:29;;;;;;;13.82;8.80;;;2.00;99.90;;;;;;5098392;28;20200;-65
2022/01/08 01:16:57;;;;;;;12.98;9.88;;;2.10;99.90;;;;;;5099053;28;20223;-65
2022/01/08 01:19:25;;;;;;;12.68;10.18;;;2.20;99.90;;;;;;5098323;28;20314;-64
2022/01/08 01:21:56;;;;;;;20.40;10.85;;;2.20;99.90;;;;;;5098624;28;20195;-65
2022/01/08 01:24:26;;;;;;;17.55;11.60;;;2.30;99.90;;;;;;5098873;28;20243;-64
2022/01/08 01:27:20;;;;;;;20.00;12.00;;;2.40;99.90;;;;;;5100361;28;20304;-65
2022/01/08 01:29:54;;;;;;;17.33;11.90;;;2.50;99.90;;;;;;5103863;28;20242;-65
2022/01/08 01:46:59;;;;;;;19.80;12.32;;;2.90;99.90;;;;;;5100927;28;20267;-65
2022/01/08 01:49:02;;;;;;;18.42;10.35;;;3.00;99.90;;;;;;5099080;28;20827;-64
2022/01/08 01:51:30;;;;;;;17.75;11.50;;;3.00;99.90;;;;;;5099136;28;20206;-65
2022/01/08 01:53:59;;;;;;;16.13;11.63;;;3.00;99.90;;;;;;5099166;28;20208;-66
2022/01/08 01:56:27;;;;;;;15.65;11.13;;;3.10;99.90;;;;;;5098594;28;20823;-63
2022/01/08 01:58:57;;;;;;;15.68;9.80;;;3.20;99.90;;;;;;5098702;28;20262;-66
2022/01/08 02:01:25;;;;;;;14.30;10.35;;;3.10;99.90;;;;;;5098785;28;20208;-65
2022/01/08 02:03:54;;;;;;;15.23;10.07;;;3.20;99.90;;;;;;5100435;28;20200;-65
2022/01/08 02:06:22;;;;;;;17.58;10.63;;;3.20;99.90;;;;;;5100814;28;20215;-64
2022/01/08 02:08:49;;;;;;;12.27;9.93;;;3.20;99.90;;;;;;5100272;28;20437;-64
2022/01/08 02:11:20;;;;;;;11.80;10.00;;;3.20;99.90;;;;;;5098702;28;20207;-65
2022/01/08 02:13:52;;;;;;;11.85;9.65;;;3.20;99.90;;;;;;5099071;28;20211;-64
2022/01/08 02:16:19;;;;;;;14.45;10.05;;;3.20;99.90;;;;;;5111042;28;20222;-65
2022/01/08 02:18:50;;;;;;;13.48;10.30;;;3.30;99.90;;;;;;5121460;28;20374;-64
2022/01/08 02:21:19;;;;;;;12.82;9.77;;;3.30;99.90;;;;;;5111180;28;20195;-63
2022/01/08 02:23:48;;;;;;;14.82;10.98;;;3.20;99.90;;;;;;5103929;28;20268;-65
2022/01/08 02:26:16;;;;;;;17.38;9.65;;;3.20;99.90;;;;;;5102281;28;20238;-64
2022/01/08 02:28:43;;;;;;;12.30;8.82;;;3.20;99.90;;;;;;5102797;28;20690;-65
2022/01/08 02:31:24;;;;;;;11.15;9.95;;;3.20;99.90;;;;;;5102854;28;20196;-64
2022/01/08 02:33:53;;;;;;;11.18;8.80;;;3.20;99.90;;;;;;5102983;28;20231;-64
2022/01/08 02:36:22;;;;;;;11.43;7.90;;;3.20;99.90;;;;;;5102802;28;20220;-64
2022/01/08 02:38:50;;;;;;;11.43;8.27;;;3.20;99.90;;;;;;5101678;28;20215;-63
2022/01/08 02:41:18;;;;;;;10.68;9.05;;;3.20;99.90;;;;;;5102551;28;20238;-64
2022/01/08 02:43:52;;;;;;;10.63;8.48;;;3.30;99.90;;;;;;5101877;27;20238;-64
2022/01/08 02:46:20;;;;;;;10.60;7.65;;;3.30;99.90;;;;;;5101977;28;20223;-64
2022/01/08 02:48:48;;;;;;;9.35;8.43;;;3.30;99.90;;;;;;5102301;28;20198;-64
2022/01/08 02:51:16;;;;;;;10.25;8.32;;;3.30;99.90;;;;;;5102502;28;20203;-63
2022/01/08 02:53:45;;;;;;;9.38;7.55;;;3.30;99.90;;;;;;5101402;28;20208;-63
2022/01/08 02:56:13;;;;;;;10.38;8.20;;;3.40;99.90;;;;;;5101700;28;20220;-66
2022/01/08 02:58:41;;;;;;;11.93;8.10;;;3.40;99.90;;;;;;5101219;28;20307;-65
2022/01/08 03:01:09;;;;;;;9.23;7.53;;;3.50;99.90;;;;;;5101858;28;20282;-65
2022/01/08 03:03:37;;;;;;;13.40;9.35;;;3.50;99.90;;;;;;5102911;28;20453;-65
2022/01/08 03:06:05;;;;;;;11.27;8.48;;;3.40;99.90;;;;;;5104238;28;20297;-67
2022/01/08 03:08:32;;;;;;;13.48;9.07;;;3.50;99.90;;;;;;5103313;28;20196;-66
2022/01/08 03:11:02;;;;;;;11.75;7.88;;;3.50;99.90;;;;;;5101612;28;20214;-66
2022/01/08 03:13:30;;;;;;;13.75;7.85;;;3.50;99.90;;;;;;5101536;28;20295;-67
2022/01/08 03:15:57;;;;;;;10.20;7.97;;;3.40;99.90;;;;;;5101767;28;20234;-66
2022/01/08 03:18:25;;;;;;;10.65;9.30;;;3.50;99.90;;;;;;5101587;28;20259;-65
2022/01/08 03:21:01;;;;;;;11.23;9.45;;;3.40;99.90;;;;;;5101465;28;20204;-66
2022/01/08 03:23:37;;;;;;;10.35;8.50;;;3.40;99.90;;;;;;5101556;28;20188;-65
2022/01/08 03:26:07;;;;;;;11.93;8.77;;;3.40;99.90;;;;;;5100817;28;20249;-64
2022/01/08 03:28:36;;;;;;;9.75;8.23;;;3.40;99.90;;;;;;5100938;28;20192;-66
2022/01/08 03:31:03;;;;;;;9.52;7.80;;;3.50;99.90;;;;;;5100608;28;20210;-64
2022/01/08 03:33:31;;;;;;;10.43;8.38;;;3.40;99.90;;;;;;5100567;28;20230;-64
2022/01/08 03:36:00;;;;;;;14.75;10.05;;;3.40;99.90;;;;;;5100598;28;20231;-66
2022/01/08 03:38:28;;;;;;;9.63;8.45;;;3.40;99.90;;;;;;5100246;27;20710;-66
2022/01/08 03:40:56;;;;;;;9.80;7.80;;;3.40;99.90;;;;;;5100844;28;20435;-66
2022/01/08 03:43:25;;;;;;;10.88;9.02;;;3.50;99.90;;;;;;5100447;28;20210;-67
2022/01/08 03:45:53;;;;;;;11.52;8.88;;;3.50;99.90;;;;;;5101426;28;20273;-67
2022/01/08 03:48:28;;;;;;;10.07;8.15;;;3.40;99.90;;;;;;5100764;28;20200;-66
2022/01/08 03:50:57;;;;;;;10.10;8.93;;;3.40;99.90;;;;;;5100574;28;20204;-66
2022/01/08 03:53:26;;;;;;;11.18;8.88;;;3.30;99.90;;;;;;5100793;28;20215;-65
2022/01/08 03:55:55;;;;;;;14.57;9.07;;;3.30;99.90;;;;;;5100398;28;20786;-65
2022/01/08 03:58:23;;;;;;;14.25;10.43;;;3.30;99.90;;;;;;5100326;28;20218;-64
2022/01/08 04:00:52;;;;;;;11.38;8.75;;;3.30;99.90;;;;;;5100475;28;20199;-65
2022/01/08 04:03:20;;;;;;;10.63;8.80;;;3.40;99.90;;;;;;5100762;28;20818;-66
2022/01/08 04:05:48;;;;;;;13.57;9.00;;;3.40;99.90;;;;;;5100399;28;20247;-64
2022/01/08 04:08:17;;;;;;;12.40;8.32;;;3.40;99.90;;;;;;5100839;28;20295;-64
2022/01/08 04:10:45;;;;;;;9.05;8.18;;;3.30;99.90;;;;;;5100331;28;20212;-63
2022/01/08 04:13:16;;;;;;;14.10;9.65;;;3.30;99.90;;;;;;5101379;28;20310;-65
2022/01/08 04:15:46;;;;;;;9.10;8.20;;;3.30;99.90;;;;;;5105268;28;20249;-66
2022/01/08 04:18:15;;;;;;;15.63;8.93;;;3.30;99.90;;;;;;5101646;28;20784;-64
2022/01/08 04:21:10;;;;;;;14.80;8.45;;;3.20;99.90;;;;;;5101265;28;20310;-63
2022/01/08 04:23:38;;;;;;;11.90;8.38;;;3.30;99.90;;;;;;5101196;28;20218;-66
2022/01/08 04:26:06;;;;;;;13.25;9.40;;;3.20;99.90;;;;;;5100712;28;20228;-63
2022/01/08 04:28:34;;;;;;;15.57;9.40;;;3.20;99.90;;;;;;5101358;28;20208;-65
2022/01/08 04:31:02;;;;;;;10.15;8.68;;;3.30;99.90;;;;;;5101244;28;20203;-65
2022/01/08 04:33:31;;;;;;;13.70;9.45;;;3.40;99.90;;;;;;5101004;28;20195;-64
2022/01/08 04:35:59;;;;;;;12.27;8.48;;;3.40;99.90;;;;;;5100449;28;20863;-65
2022/01/08 04:38:27;;;;;;;12.88;9.25;;;3.50;99.90;;;;;;5099365;27;20279;-65
2022/01/08 04:40:54;;;;;;;12.70;8.50;;;3.50;99.90;;;;;;5100348;28;20471;-65
2022/01/08 04:43:23;;;;;;;15.18;9.52;;;3.40;99.90;;;;;;5100246;28;20468;-64
2022/01/08 04:45:52;;;;;;;17.17;9.80;;;3.40;99.90;;;;;;5115743;28;20218;-66
2022/01/08 04:48:21;;;;;;;13.55;8.45;;;3.40;99.90;;;;;;5119329;28;20294;-66
2022/01/08 04:50:51;;;;;;;15.15;9.60;;;3.50;99.90;;;;;;5100360;28;20560;-66
2022/01/08 04:53:19;;;;;;;12.80;9.43;;;3.50;99.90;;;;;;5099985;28;20207;-66
2022/01/08 04:55:47;;;;;;;13.98;9.75;;;3.50;99.90;;;;;;5100223;28;20310;-66
2022/01/08 04:58:15;;;;;;;15.80;9.88;;;3.50;99.90;;;;;;5099736;28;20196;-65
2022/01/08 05:00:43;;;;;;;17.00;10.40;;;3.50;99.90;;;;;;5099473;28;20229;-65
2022/01/08 05:03:11;;;;;;;17.00;10.95;;;3.60;99.90;;;;;;5099602;28;20202;-64
2022/01/08 05:05:39;;;;;;;12.50;8.40;;;3.40;99.90;;;;;;5099370;28;20677;-66
2022/01/08 05:08:08;;;;;;;16.58;10.27;;;3.40;99.90;;;;;;5099383;28;20275;-66
2022/01/08 05:10:36;;;;;;;15.88;10.93;;;3.30;99.90;;;;;;5099404;28;20427;-63
2022/01/08 05:13:05;;;;;;;14.65;10.25;;;3.40;99.90;;;;;;5099325;28;20677;-66
2022/01/08 05:15:34;;;;;;;14.10;10.10;;;3.40;99.90;;;;;;5099574;28;20231;-65
2022/01/08 05:18:04;;;;;;;11.13;9.80;;;3.30;99.90;;;;;;5098906;28;20287;-66
2022/01/08 05:20:37;;;;;;;14.13;8.73;;;3.30;99.90;;;;;;5098815;28;20751;-65
2022/01/08 05:23:04;;;;;;;16.83;9.75;;;3.40;99.90;;;;;;5098967;28;20746;-64
2022/01/08 05:25:34;;;;;;;12.70;9.65;;;3.40;99.90;;;;;;5099156;28;20290;-64
2022/01/08 05:28:02;;;;;;;16.08;10.00;;;3.50;99.90;;;;;;5098326;28;20196;-64
2022/01/08 05:30:30;;;;;;;12.68;9.60;;;3.50;99.90;;;;;;5098921;28;20290;-65
2022/01/08 05:32:58;;;;;;;13.90;10.68;;;3.50;99.90;;;;;;5099693;28;20592;-65
2022/01/08 05:35:28;;;;;;;15.95;11.07;;;3.50;99.90;;;;;;5098833;28;20218;-64
2022/01/08 05:37:56;;;;;;;15.60;10.20;;;3.50;99.90;;;;;;5098827;27;20463;-65
2022/01/08 05:40:24;;;;;;;15.60;11.52;;;3.50;99.90;;;;;;5098432;28;20563;-64
2022/01/08 05:42:53;;;;;;;18.40;11.13;;;3.50;99.90;;;;;;5098556;28;20207;-66
2022/01/08 05:45:21;;;;;;;14.88;9.55;;;3.40;99.90;;;;;;5099068;28;20250;-64
2022/01/08 05:47:49;;;;;;;18.83;10.13;;;3.40;99.90;;;;;;5099003;28;20299;-66
2022/01/08 05:50:17;;;;;;;15.68;9.95;;;3.50;99.90;;;;;;5098666;28;20199;-66
2022/01/08 05:52:45;;;;;;;11.98;9.23;;;3.50;99.90;;;;;;5099075;28;20294;-66
2022/01/08 05:55:13;;;;;;;15.35;8.70;;;3.50;99.90;;;;;;5098386;28;20203;-64
2022/01/08 05:57:41;;;;;;;15.88;9.77;;;3.50;99.90;;;;;;5098794;28;20468;-64
2022/01/08 06:00:11;;;;;;;12.95;9.43;;;3.50;99.90;;;;;;5098213;28;20276;-66
2022/01/08 06:02:39;;;;;;;13.93;8.93;;;3.50;99.90;;;;;;5098637;28;20392;-66
2022/01/08 06:05:09;;;;;;;11.65;9.48;;;3.40;99.90;;;;;;5098558;28;20630;-65
2022/01/08 06:07:37;;;;;;;13.25;9.20;;;3.40;99.90;;;;;;5098836;28;20223;-63
2022/01/08 06:10:05;;;;;;;17.17;9.23;;;3.40;99.90;;;;;;5098744;28;20254;-66
2022/01/08 06:12:33;;;;;;;21.77;10.98;;;3.40;99.90;;;;;;5100958;28;20483;-64
2022/01/08 06:15:01;;;;;;;17.27;12.38;;;3.40;99.90;;;;;;5099543;28;20297;-65
2022/01/08 06:17:30;;;;;;;17.77;12.93;;;3.40;99.90;;;;;;5099581;28;20444;-65
2022/01/08 06:20:01;;;;;;;20.58;12.77;;;3.40;99.90;;;;;;5098733;27;20227;-63
2022/01/08 06:22:29;;;;;;;18.42;13.25;;;3.40;99.90;;;;;;5100320;28;20196;-66
2022/01/08 06:24:57;;;;;;;19.73;13.60;;;3.40;99.90;;;;;;5099190;28;20207;-65
2022/01/08 06:27:24;;;;;;;15.57;11.90;;;3.40;99.90;;;;;;5099063;28;20730;-65
2022/01/08 06:29:52;;;;;;;17.70;12.30;;;3.40;99.90;;;;;;5099548;28;20446;-66
2022/01/08 06:32:20;;;;;;;23.85;15.13;;;3.40;99.90;;;;;;5098389;28;20485;-65
2022/01/08 06:34:49;;;;;;;18.42;12.98;;;3.40;99.90;;;;;;5096129;27;20218;-65
2022/01/08 06:37:17;;;;;;;24.25;14.40;;;3.50;99.90;;;;;;5118725;27;20257;-65
2022/01/08 06:39:45;;;;;;;21.92;14.00;;;3.50;99.90;;;;;;5118676;27;20701;-62
2022/01/08 06:42:13;;;;;;;20.70;14.95;;;3.50;99.90;;;;;;5128474;27;20213;-62
2022/01/08 06:44:41;;;;;;;26.10;14.73;;;3.50;99.90;;;;;;5126322;27;20245;-62
2022/01/08 06:47:09;;;;;;;21.38;13.93;;;3.60;99.90;;;;;;5127429;27;20287;-63
2022/01/08 06:49:37;;;;;;;24.80;14.93;;;3.50;99.90;;;;;;5119127;27;20451;-62
2022/01/08 06:52:07;;;;;;;22.20;13.90;;;3.50;99.90;;;;;;5112414;28;20195;-63
2022/01/08 06:54:35;;;;;;;21.85;12.57;;;3.50;99.90;;;;;;5098592;28;20264;-62
2022/01/08 06:57:03;;;;;;;17.85;12.32;;;3.50;99.90;;;;;;5103454;28;20242;-62
2022/01/08 06:59:32;;;;;;;21.05;12.45;;;3.40;99.90;;;;;;5099789;28;20373;-62
2022/01/08 07:02:00;;;;;;;15.57;10.80;;;3.40;99.90;;;;;;5103095;28;20224;-62
2022/01/08 07:04:28;;;;;;;17.42;11.55;;;3.40;99.90;;;;;;5104196;28;20202;-62
2022/01/08 07:06:57;;;;;;;20.67;10.95;;;3.40;99.90;;;;;;5103349;28;20314;-64
2022/01/08 07:09:26;;;;;;;14.15;11.15;;;3.40;99.90;;;;;;5103563;28;20195;-62
2022/01/08 07:11:54;;;;;;;20.35;11.95;;;3.40;99.90;;;;;;5104371;28;20200;-63
2022/01/08 07:14:21;;;;;;;13.48;9.93;;;3.40;99.90;;;;;;5110151;28;20214;-66
2022/01/08 07:16:50;;;;;;;14.35;9.85;;;3.40;99.90;;;;;;5123259;28;20235;-63
2022/01/08 07:19:19;;;;;;;15.52;10.43;;;3.50;99.90;;;;;;5109516;28;20200;-63
2022/01/08 07:21:47;;;;;;;13.05;9.77;;;3.50;99.90;;;;;;5104824;28;20536;-63
2022/01/08 07:24:14;;;;;;;18.23;9.20;;;3.50;99.90;;;;;;5102932;28;20200;-63
2022/01/08 07:26:44;;;;;;;20.35;11.20;;;3.50;99.90;;;;;;5103242;28;20650;-63
2022/01/08 07:29:12;;;;;;;14.57;10.50;;;3.40;99.90;;;;;;5101707;28;20200;-63
2022/01/08 07:31:40;;;;;;;17.70;10.82;;;3.50;99.90;;;;;;5102412;28;20647;-63
2022/01/08 07:34:08;;;;;;;12.38;9.75;;;3.50;99.90;;;;;;5102789;28;20207;-63
2022/01/08 07:36:36;;;;;;;13.38;9.90;;;3.60;99.90;;;;;;5102460;27;20215;-63
2022/01/08 07:39:04;;;;;;;18.75;11.23;;;3.70;99.90;;;;;;5102420;28;20200;-63
2022/01/08 07:41:31;;;;;;;17.13;10.57;;;3.60;99.90;;;;;;5101168;28;20233;-64
2022/01/08 07:44:01;;;;;;;13.25;9.40;;;3.60;99.90;;;;;;5101621;28;20223;-63
2022/01/08 07:46:29;;;;;;;18.70;10.65;;;3.60;99.90;;;;;;5100423;28;20219;-63
2022/01/08 07:48:56;;;;;;;17.40;10.52;;;3.50;99.90;;;;;;5101259;27;20210;-63
2022/01/08 07:51:24;;;;;;;15.80;12.02;;;3.50;99.90;;;;;;5101877;28;20453;-64
2022/01/08 07:53:52;;;;;;;18.20;12.30;;;3.40;99.90;;;;;;5101550;28;20242;-63
2022/01/08 07:56:20;;;;;;;18.75;13.07;;;3.40;99.90;;;;;;5103536;28;20219;-63
2022/01/08 07:58:48;;;;;;;19.98;13.30;;;3.50;99.90;;;;;;5110833;28;20430;-62
2022/01/08 08:01:22;;;;;;;21.33;13.20;;;3.50;99.90;;;;;;5110052;27;20219;-63
2022/01/08 08:03:49;;;;;;;24.75;14.40;;;3.50;99.90;;;;;;5112026;28;20267;-63
2022/01/08 08:06:17;;;;;;;20.63;14.30;;;3.60;99.90;;;;;;5110732;28;20287;-61
2022/01/08 08:08:46;;;;;;;23.00;15.20;;;3.60;99.90;;;;;;5113638;28;20234;-63
2022/01/08 08:11:14;;;;;;;20.15;14.02;;;3.50;99.90;;;;;;5103108;28;20204;-63
2022/01/08 08:13:42;;;;;;;21.13;14.52;;;3.50;99.90;;;;;;5085780;28;20208;-63
2022/01/08 08:16:10;;;;;;;22.65;15.60;;;3.50;99.90;;;;;;5080497;28;20252;-63
2022/01/08 08:18:39;;;;;;;23.95;15.15;;;3.60;99.90;;;;;;5080144;28;20200;-63
2022/01/08 08:21:07;;;;;;;25.23;15.95;;;3.60;99.90;;;;;;5080532;28;20224;-63
2022/01/08 08:23:35;;;;;;;22.98;14.52;;;3.60;99.90;;;;;;5080268;28;20215;-63
2022/01/08 08:26:03;;;;;;;29.40;16.48;;;3.60;99.90;;;;;;5080286;28;20248;-63
2022/01/08 08:28:31;;;;;;;26.92;18.15;;;3.60;99.90;;;;;;5079654;27;20901;-63
2022/01/08 08:30:58;;;;;;;24.55;16.08;;;3.60;99.90;;;;;;5080323;28;20679;-63
2022/01/08 08:33:26;;;;;;;26.95;17.80;;;3.60;99.90;;;;;;5080613;28;20655;-64
2022/01/08 08:35:55;;;;;;;23.55;16.98;;;3.60;99.90;;;;;;5090628;28;20222;-63
2022/01/08 08:38:23;;;;;;;28.38;17.45;;;3.60;99.90;;;;;;5100459;28;20641;-63
2022/01/08 08:40:51;;;;;;;25.45;15.73;;;3.50;99.90;;;;;;5089772;28;20200;-64
2022/01/08 08:43:20;;;;;;;22.95;16.63;;;3.60;99.90;;;;;;5090498;28;20195;-63
2022/01/08 08:45:48;;;;;;;26.48;16.52;;;3.60;99.90;;;;;;5091943;28;20251;-64
2022/01/08 08:48:16;;;;;;;26.65;17.17;;;3.60;99.90;;;;;;5100548;28;20199;-64
2022/01/08 08:50:45;;;;;;;26.77;15.82;;;3.60;99.90;;;;;;5101325;28;20565;-65
2022/01/08 08:53:14;;;;;;;21.88;14.32;;;3.60;99.90;;;;;;5099307;28;20654;-65
2022/01/08 08:55:41;;;;;;;24.60;15.05;;;3.80;99.90;;;;;;5099461;28;20228;-65
2022/01/08 08:58:09;;;;;;;26.35;14.07;;;3.80;99.90;;;;;;5099417;28;20532;-65
2022/01/08 09:00:37;;;;;;;19.90;13.30;;;3.90;99.90;;;;;;5099173;28;20637;-64
2022/01/08 09:03:05;;;;;;;24.27;14.43;;;3.90;99.90;;;;;;5099360;28;20211;-65
2022/01/08 09:05:34;;;;;;;20.25;13.50;;;3.90;99.90;;;;;;5099634;28;20203;-65
2022/01/08 09:08:03;;;;;;;30.75;14.77;;;3.90;99.90;;;;;;5093625;28;20428;-64
2022/01/08 09:10:33;;;;;;;19.05;13.48;;;3.80;99.90;;;;;;5100237;28;20417;-65
2022/01/08 09:13:01;;;;;;;24.13;14.30;;;4.00;99.90;;;;;;5100996;27;20194;-65
2022/01/08 09:15:29;;;;;;;24.90;13.77;;;4.00;99.90;;;;;;5089656;28;20573;-65
2022/01/08 09:17:58;;;;;;;23.10;13.88;;;4.10;99.90;;;;;;5086113;28;20195;-64
2022/01/08 09:20:28;;;;;;;20.88;12.70;;;4.10;99.90;;;;;;5080573;28;20265;-65
2022/01/08 09:22:56;;;;;;;21.75;12.30;;;4.10;99.90;;;;;;5082980;28;20591;-65
2022/01/08 09:25:24;;;;;;;22.38;12.57;;;4.20;99.90;;;;;;5097493;27;20192;-65
2022/01/08 09:27:53;;;;;;;17.38;11.95;;;4.20;99.90;;;;;;5088909;28;20231;-65
2022/01/08 09:30:21;;;;;;;21.48;14.65;;;4.30;99.90;;;;;;5090220;28;20349;-65
2022/01/08 09:32:49;;;;;;;19.88;12.50;;;4.40;99.90;;;;;;5092416;28;20682;-65
2022/01/08 09:35:18;;;;;;;18.42;12.68;;;4.50;99.90;;;;;;5099527;28;20195;-64
2022/01/08 09:37:46;;;;;;;22.23;13.25;;;4.50;99.90;;;;;;5099852;28;20233;-65
2022/01/08 09:40:17;;;;;;;22.08;13.48;;;4.60;99.90;;;;;;5108462;28;20745;-65
2022/01/08 09:42:46;;;;;;;21.27;12.27;;;4.50;99.90;;;;;;5111466;28;20273;-64
2022/01/08 09:45:15;;;;;;;18.15;12.13;;;4.50;99.90;;;;;;5115084;28;20200;-64
2022/01/08 09:47:43;;;;;;;25.40;12.57;;;4.60;99.90;;;;;;5115912;28;20302;-63
2022/01/08 09:50:12;;;;;;;18.05;12.32;;;4.60;99.90;;;;;;5103338;28;20211;-63
2022/01/08 09:52:40;;;;;;;20.30;12.57;;;4.60;99.90;;;;;;5103295;27;20230;-63
2022/01/08 09:55:09;;;;;;;19.98;11.70;;;4.60;99.90;;;;;;5102520;28;20663;-63
2022/01/08 09:57:37;;;;;;;20.50;13.05;;;4.50;99.90;;;;;;5091785;28;20207;-63
2022/01/08 10:00:12;;;;;;;17.65;11.80;;;4.40;99.90;;;;;;5096239;28;21116;-63
2022/01/08 10:02:41;;;;;;;18.40;11.63;;;4.30;99.90;;;;;;5090115;27;20251;-65
2022/01/08 10:05:11;;;;;;;20.27;12.77;;;4.30;99.90;;;;;;5084601;28;20711;-64
2022/01/08 10:07:40;;;;;;;16.10;11.43;;;4.30;99.90;;;;;;5079135;28;20624;-63
2022/01/08 10:10:14;;;;;;;22.42;13.73;;;4.40;99.90;;;;;;5079680;28;20204;-63
2022/01/08 10:12:49;;;;;;;18.67;11.35;;;4.30;99.90;;;;;;5079669;28;20262;-64
2022/01/08 10:18:20;;;;;;;18.10;11.45;;;4.10;99.90;;;;;;5079358;28;20203;-64
2022/01/08 10:20:49;;;;;;;17.33;10.85;;;4.00;99.90;;;;;;5078281;28;20203;-64
2022/01/08 10:23:20;;;;;;;19.77;11.20;;;4.00;99.90;;;;;;5078493;28;20676;-64
2022/01/08 10:25:57;;;;;;;18.23;12.30;;;4.00;99.90;;;;;;5078378;27;20315;-64
2022/01/08 10:28:40;;;;;;;22.63;11.43;;;4.10;99.90;;;;;;5079096;28;20502;-64
2022/01/08 10:31:14;;;;;;;19.70;11.55;;;4.10;99.90;;;;;;5078487;28;20200;-63
2022/01/08 10:33:46;;;;;;;18.50;11.43;;;4.10;99.90;;;;;;5078689;28;20697;-63
2022/01/08 10:36:14;;;;;;;15.88;11.55;;;4.10;99.90;;;;;;5078399;27;20306;-63
2022/01/08 10:38:42;;;;;;;17.13;11.35;;;4.20;99.90;;;;;;5082225;28;20201;-63
2022/01/08 10:41:15;;;;;;;17.20;10.45;;;4.20;99.90;;;;;;5099956;28;20199;-64
2022/01/08 10:43:45;;;;;;;14.90;10.60;;;4.20;99.90;;;;;;5102500;27;20219;-63
2022/01/08 10:46:16;;;;;;;20.58;10.95;;;4.30;99.90;;;;;;5101588;28;20223;-63
2022/01/08 10:48:47;;;;;;;15.05;10.00;;;4.30;99.90;;;;;;5101408;28;20242;-63
2022/01/08 10:51:22;;;;;;;15.18;10.15;;;4.30;99.90;;;;;;5100889;28;20452;-63
2022/01/08 10:54:03;;;;;;;16.67;10.52;;;4.30;99.90;;;;;;5100677;28;20210;-63
2022/01/08 10:56:32;;;;;;;13.50;9.55;;;4.20;99.90;;;;;;5100816;28;20249;-63
2022/01/08 10:59:03;;;;;;;13.73;10.90;;;4.20;99.90;;;;;;5100730;27;20701;-64
2022/01/08 11:01:39;;;;;;;13.85;10.48;;;4.20;99.90;;;;;;5102197;28;20271;-63
2022/01/08 11:04:11;;;;;;;15.10;10.70;;;4.20;99.90;;;;;;5103884;28;20219;-63
2022/01/08 11:06:56;;;;;;;15.68;11.80;;;4.20;99.90;;;;;;5107347;28;20231;-63
2022/01/08 11:09:26;;;;;;;20.73;10.20;;;4.20;99.90;;;;;;5105113;28;20237;-63
2022/01/08 11:11:56;;;;;;;15.30;10.63;;;4.10;99.90;;;;;;5101659;28;20446;-63
2022/01/08 11:14:59;;;;;;;20.67;11.98;;;4.10;99.90;;;;;;5101584;28;20204;-64
2022/01/08 11:17:32;;;;;;;16.80;10.38;;;4.10;99.90;;;;;;5102134;28;20608;-64
2022/01/08 11:20:06;;;;;;;20.33;11.57;;;4.00;99.90;;;;;;5102079;28;20206;-63
2022/01/08 11:22:36;;;;;;;14.23;9.95;;;4.10;99.90;;;;;;5101539;28;20219;-64
2022/01/08 11:25:09;;;;;;;15.88;10.82;;;4.00;99.90;;;;;;5101292;28;20315;-62
2022/01/08 11:27:46;;;;;;;18.15;11.20;;;4.10;99.90;;;;;;5101002;28;20739;-64
2022/01/08 11:30:19;;;;;;;17.13;10.10;;;4.10;99.90;;;;;;5100668;27;20249;-64
2022/01/08 11:32:48;;;;;;;16.55;10.60;;;4.00;99.90;;;;;;5101712;28;20227;-64
2022/01/08 11:35:36;;;;;;;17.23;10.65;;;4.00;99.90;;;;;;5100970;27;20234;-64
2022/01/08 11:38:07;;;;;;;18.70;10.88;;;4.00;99.90;;;;;;5102204;28;20706;-64
2022/01/08 11:40:37;;;;;;;12.80;11.15;;;4.00;99.90;;;;;;5101250;28;20223;-64
2022/01/08 11:43:07;;;;;;;19.15;9.52;;;4.00;99.90;;;;;;5100423;28;20674;-63
2022/01/08 11:45:37;;;;;;;16.23;9.40;;;4.00;99.90;;;;;;5100299;28;20732;-64
2022/01/08 11:48:08;;;;;;;14.20;10.93;;;4.00;99.90;;;;;;5100193;27;20593;-63
2022/01/08 11:50:38;;;;;;;16.23;8.90;;;4.00;99.90;;;;;;5100493;27;20588;-64
2022/01/08 11:53:20;;;;;;;12.23;9.02;;;4.10;99.90;;;;;;5099677;28;20586;-64
2022/01/08 11:55:50;;;;;;;18.35;9.68;;;4.10;99.90;;;;;;5100978;28;20230;-64
2022/01/08 11:58:23;;;;;;;13.35;9.25;;;4.20;99.90;;;;;;5100619;28;20674;-64
2022/01/08 12:00:57;;;;;;;15.75;9.95;;;4.20;99.90;;;;;;5100826;28;20276;-64
2022/01/08 12:03:34;;;;;;;18.30;9.77;;;4.20;99.90;;;;;;5099980;27;20518;-64
2022/01/08 12:06:33;;;;;;;14.57;10.23;;;4.30;99.90;;;;;;5100649;28;20740;-63
2022/01/08 12:09:17;;;;;;;15.43;9.05;;;4.40;99.90;;;;;;5100566;28;20415;-63
2022/01/08 12:11:54;;;;;;;19.35;10.27;;;4.40;99.90;;;;;;5101477;28;20735;-63
2022/01/08 12:14:24;;;;;;;13.73;9.82;;;4.40;99.90;;;;;;5105523;28;20282;-64
2022/01/08 12:16:53;;;;;;;12.23;8.63;;;4.50;99.90;;;;;;5122084;28;20469;-63
2022/01/08 12:19:29;;;;;;;15.35;10.02;;;4.50;99.90;;;;;;5106747;28;20209;-64
2022/01/08 12:22:00;;;;;;;10.25;8.45;;;4.40;99.90;;;;;;5107888;28;20249;-64
2022/01/08 12:24:37;;;;;;;16.95;8.23;;;4.40;99.90;;;;;;5086297;28;20216;-64
2022/01/08 12:27:37;;;;;;;11.13;8.23;;;4.40;99.90;;;;;;5082455;28;20227;-64
2022/01/08 12:30:26;;;;;;;15.00;8.68;;;4.40;99.90;;;;;;5080857;28;20211;-64
2022/01/08 12:33:15;;;;;;;14.35;7.65;;;4.40;99.90;;;;;;5079959;28;20239;-64
2022/01/08 12:35:42;;;;;;;11.88;8.55;;;4.50;99.90;;;;;;5080323;27;20319;-63
2022/01/08 12:38:28;;;;;;;11.05;7.13;;;4.60;99.90;;;;;;5080968;28;20796;-64
2022/01/08 12:40:57;;;;;;;18.55;8.18;;;4.80;99.90;;;;;;5080488;28;20303;-64
2022/01/08 12:43:31;;;;;;;8.73;7.38;;;4.80;99.90;;;;;;5080199;28;20216;-64
2022/01/08 12:46:18;;;;;;;8.98;6.85;;;4.90;99.90;;;;;;5088983;27;20825;-64
2022/01/08 12:49:12;;;;;;;11.45;6.88;;;5.00;99.90;;;;;;5100429;27;20295;-63
2022/01/08 12:52:06;;;;;;;7.88;6.07;;;5.00;99.90;;;;;;5114323;27;20195;-65
2022/01/08 12:54:36;;;;;;;7.90;6.78;;;5.00;99.90;;;;;;5121536;27;20199;-63
2022/01/08 12:57:08;;;;;;;9.18;7.13;;;5.00;99.90;;;;;;5121481;27;20223;-64
2022/01/08 12:59:39;;;;;;;10.85;7.55;;;5.00;99.90;;;;;;5083509;27;20304;-64
2022/01/08 13:02:09;;;;;;;9.63;7.07;;;5.00;99.90;;;;;;5080847;28;20631;-62
2022/01/08 13:04:39;;;;;;;10.77;7.43;;;4.90;99.90;;;;;;5080132;28;20305;-65
2022/01/08 13:07:08;;;;;;;16.50;7.93;;;4.90;99.90;;;;;;5079807;28;20243;-64
2022/01/08 13:09:37;;;;;;;11.27;8.02;;;4.80;99.90;;;;;;5079753;28;20226;-63
2022/01/08 13:12:05;;;;;;;11.40;7.75;;;4.80;99.90;;;;;;5079858;28;20207;-64
2022/01/08 13:14:33;;;;;;;11.95;7.53;;;4.80;99.90;;;;;;5079272;28;20204;-63